sensor_id;sensor_type;location;lat;lon;timestamp;P1;durP1;ratioP1;P2;durP2;ratioP2
26062;SDS011;13837;48.562;12.108;2023-09-30T00:00:57;27.40;;;12.07;;
26062;SDS011;13837;48.562;12.108;2023-09-30T00:03:23;27.00;;;11.23;;
26062;SDS011;13837;48.562;12.108;2023-09-30T00:05:50;23.92;;;11.32;;
26062;SDS011;13837;48.562;12.108;2023-09-30T00:08:16;26.00;;;11.98;;
26062;SDS011;13837;48.562;12.108;2023-09-30T00:10:41;25.33;;;11.52;;
26062;SDS011;13837;48.562;12.108;2023-09-30T00:13:07;28.42;;;11.77;;
26062;SDS011;13837;48.562;12.108;2023-09-30T00:15:33;27.70;;;12.70;;
26062;SDS011;13837;48.562;12.108;2023-09-30T00:17:59;26.27;;;11.07;;
26062;SDS011;13837;48.562;12.108;2023-09-30T00:20:26;23.17;;;12.40;;
26062;SDS011;13837;48.562;12.108;2023-09-30T00:22:53;26.70;;;11.57;;
26062;SDS011;13837;48.562;12.108;2023-09-30T00:25:19;26.60;;;11.32;;
26062;SDS011;13837;48.562;12.108;2023-09-30T00:27:46;30.17;;;11.68;;
26062;SDS011;13837;48.562;12.108;2023-09-30T00:30:13;26.20;;;11.18;;
26062;SDS011;13837;48.562;12.108;2023-09-30T00:32:39;25.42;;;12.07;;
26062;SDS011;13837;48.562;12.108;2023-09-30T00:35:05;26.38;;;11.68;;
26062;SDS011;13837;48.562;12.108;2023-09-30T00:37:37;28.88;;;12.30;;
26062;SDS011;13837;48.562;12.108;2023-09-30T00:40:04;27.02;;;10.93;;
26062;SDS011;13837;48.562;12.108;2023-09-30T00:42:30;25.83;;;11.55;;
26062;SDS011;13837;48.562;12.108;2023-09-30T00:44:56;25.50;;;11.13;;
26062;SDS011;13837;48.562;12.108;2023-09-30T00:47:22;25.02;;;11.25;;
26062;SDS011;13837;48.562;12.108;2023-09-30T00:49:52;22.30;;;10.00;;
26062;SDS011;13837;48.562;12.108;2023-09-30T00:52:21;27.42;;;12.02;;
26062;SDS011;13837;48.562;12.108;2023-09-30T00:54:48;24.33;;;10.88;;
26062;SDS011;13837;48.562;12.108;2023-09-30T00:57:15;24.23;;;10.73;;
26062;SDS011;13837;48.562;12.108;2023-09-30T00:59:43;27.20;;;11.38;;
26062;SDS011;13837;48.562;12.108;2023-09-30T01:02:09;22.30;;;10.40;;
26062;SDS011;13837;48.562;12.108;2023-09-30T01:04:36;25.73;;;11.43;;
26062;SDS011;13837;48.562;12.108;2023-09-30T01:07:03;25.65;;;11.23;;
26062;SDS011;13837;48.562;12.108;2023-09-30T01:09:30;27.85;;;12.23;;
26062;SDS011;13837;48.562;12.108;2023-09-30T01:11:57;26.25;;;11.55;;
26062;SDS011;13837;48.562;12.108;2023-09-30T01:14:24;23.35;;;10.65;;
26062;SDS011;13837;48.562;12.108;2023-09-30T01:16:51;25.92;;;10.90;;
26062;SDS011;13837;48.562;12.108;2023-09-30T01:19:17;25.40;;;11.23;;
26062;SDS011;13837;48.562;12.108;2023-09-30T01:21:43;22.10;;;10.43;;
26062;SDS011;13837;48.562;12.108;2023-09-30T01:24:16;27.13;;;11.68;;
26062;SDS011;13837;48.562;12.108;2023-09-30T01:26:42;19.52;;;9.70;;
26062;SDS011;13837;48.562;12.108;2023-09-30T01:29:09;21.40;;;10.40;;
26062;SDS011;13837;48.562;12.108;2023-09-30T01:31:37;23.05;;;10.95;;
26062;SDS011;13837;48.562;12.108;2023-09-30T01:34:04;24.70;;;10.60;;
26062;SDS011;13837;48.562;12.108;2023-09-30T01:36:30;23.65;;;10.35;;
26062;SDS011;13837;48.562;12.108;2023-09-30T01:38:57;24.65;;;11.40;;
26062;SDS011;13837;48.562;12.108;2023-09-30T01:41:23;21.20;;;10.20;;
26062;SDS011;13837;48.562;12.108;2023-09-30T01:43:49;26.27;;;10.32;;
26062;SDS011;13837;48.562;12.108;2023-09-30T01:46:15;22.30;;;10.48;;
26062;SDS011;13837;48.562;12.108;2023-09-30T01:48:41;21.70;;;9.88;;
26062;SDS011;13837;48.562;12.108;2023-09-30T01:51:07;20.80;;;9.82;;
26062;SDS011;13837;48.562;12.108;2023-09-30T01:53:33;21.40;;;9.82;;
26062;SDS011;13837;48.562;12.108;2023-09-30T01:55:59;21.38;;;9.40;;
26062;SDS011;13837;48.562;12.108;2023-09-30T01:58:25;21.83;;;9.57;;
26062;SDS011;13837;48.562;12.108;2023-09-30T02:01:00;21.73;;;10.63;;
26062;SDS011;13837;48.562;12.108;2023-09-30T02:05:59;20.23;;;10.00;;
26062;SDS011;13837;48.562;12.108;2023-09-30T02:08:25;23.20;;;10.32;;
26062;SDS011;13837;48.562;12.108;2023-09-30T02:10:51;21.10;;;9.18;;
26062;SDS011;13837;48.562;12.108;2023-09-30T02:13:18;21.63;;;9.73;;
26062;SDS011;13837;48.562;12.108;2023-09-30T02:15:44;23.70;;;10.45;;
26062;SDS011;13837;48.562;12.108;2023-09-30T02:18:09;19.33;;;9.40;;
26062;SDS011;13837;48.562;12.108;2023-09-30T02:20:36;21.20;;;9.77;;
26062;SDS011;13837;48.562;12.108;2023-09-30T02:23:05;20.50;;;8.90;;
26062;SDS011;13837;48.562;12.108;2023-09-30T02:25:36;21.58;;;9.80;;
26062;SDS011;13837;48.562;12.108;2023-09-30T02:28:03;19.10;;;9.27;;
26062;SDS011;13837;48.562;12.108;2023-09-30T02:30:29;17.17;;;8.63;;
26062;SDS011;13837;48.562;12.108;2023-09-30T02:32:57;20.48;;;9.65;;
26062;SDS011;13837;48.562;12.108;2023-09-30T02:35:25;18.65;;;8.73;;
26062;SDS011;13837;48.562;12.108;2023-09-30T02:37:51;21.10;;;9.98;;
26062;SDS011;13837;48.562;12.108;2023-09-30T02:40:18;16.35;;;9.23;;
26062;SDS011;13837;48.562;12.108;2023-09-30T02:42:45;21.70;;;9.82;;
26062;SDS011;13837;48.562;12.108;2023-09-30T02:45:12;22.83;;;9.35;;
26062;SDS011;13837;48.562;12.108;2023-09-30T02:47:39;20.90;;;9.80;;
26062;SDS011;13837;48.562;12.108;2023-09-30T02:50:06;19.67;;;8.32;;
26062;SDS011;13837;48.562;12.108;2023-09-30T02:52:39;19.40;;;9.02;;
26062;SDS011;13837;48.562;12.108;2023-09-30T02:55:06;17.05;;;8.57;;
26062;SDS011;13837;48.562;12.108;2023-09-30T02:57:33;19.80;;;9.20;;
26062;SDS011;13837;48.562;12.108;2023-09-30T03:00:01;20.08;;;8.88;;
26062;SDS011;13837;48.562;12.108;2023-09-30T03:02:37;17.25;;;8.85;;
26062;SDS011;13837;48.562;12.108;2023-09-30T03:05:03;23.13;;;9.18;;
26062;SDS011;13837;48.562;12.108;2023-09-30T03:07:30;17.23;;;9.00;;
26062;SDS011;13837;48.562;12.108;2023-09-30T03:09:58;17.08;;;7.95;;
26062;SDS011;13837;48.562;12.108;2023-09-30T03:12:25;13.05;;;7.18;;
26062;SDS011;13837;48.562;12.108;2023-09-30T03:14:51;18.33;;;8.63;;
26062;SDS011;13837;48.562;12.108;2023-09-30T03:17:17;16.23;;;7.55;;
26062;SDS011;13837;48.562;12.108;2023-09-30T03:19:44;15.73;;;7.68;;
26062;SDS011;13837;48.562;12.108;2023-09-30T03:22:10;13.45;;;7.50;;
26062;SDS011;13837;48.562;12.108;2023-09-30T03:24:37;16.45;;;8.10;;
26062;SDS011;13837;48.562;12.108;2023-09-30T03:27:04;18.25;;;8.27;;
26062;SDS011;13837;48.562;12.108;2023-09-30T03:29:30;16.52;;;7.85;;
26062;SDS011;13837;48.562;12.108;2023-09-30T03:31:56;16.73;;;8.50;;
26062;SDS011;13837;48.562;12.108;2023-09-30T03:34:22;16.42;;;8.23;;
26062;SDS011;13837;48.562;12.108;2023-09-30T03:36:47;17.05;;;8.30;;
26062;SDS011;13837;48.562;12.108;2023-09-30T03:39:14;17.83;;;7.82;;
26062;SDS011;13837;48.562;12.108;2023-09-30T03:41:40;15.20;;;7.70;;
26062;SDS011;13837;48.562;12.108;2023-09-30T03:44:06;16.02;;;7.60;;
26062;SDS011;13837;48.562;12.108;2023-09-30T03:46:32;15.82;;;7.90;;
26062;SDS011;13837;48.562;12.108;2023-09-30T03:48:57;16.50;;;7.93;;
26062;SDS011;13837;48.562;12.108;2023-09-30T03:51:24;14.05;;;7.68;;
26062;SDS011;13837;48.562;12.108;2023-09-30T03:53:50;15.32;;;8.00;;
26062;SDS011;13837;48.562;12.108;2023-09-30T03:56:16;15.25;;;7.78;;
26062;SDS011;13837;48.562;12.108;2023-09-30T03:58:43;13.93;;;7.50;;
26062;SDS011;13837;48.562;12.108;2023-09-30T04:01:10;18.05;;;8.02;;
26062;SDS011;13837;48.562;12.108;2023-09-30T04:06:07;15.05;;;7.82;;
26062;SDS011;13837;48.562;12.108;2023-09-30T04:08:34;20.80;;;8.77;;
26062;SDS011;13837;48.562;12.108;2023-09-30T04:11:01;20.02;;;9.65;;
26062;SDS011;13837;48.562;12.108;2023-09-30T04:13:30;20.80;;;9.30;;
26062;SDS011;13837;48.562;12.108;2023-09-30T04:15:58;18.17;;;8.88;;
26062;SDS011;13837;48.562;12.108;2023-09-30T04:18:24;18.27;;;9.23;;
26062;SDS011;13837;48.562;12.108;2023-09-30T04:20:51;18.42;;;9.75;;
26062;SDS011;13837;48.562;12.108;2023-09-30T04:23:18;15.98;;;8.63;;
26062;SDS011;13837;48.562;12.108;2023-09-30T04:25:45;15.45;;;7.85;;
26062;SDS011;13837;48.562;12.108;2023-09-30T04:28:12;16.48;;;8.75;;
26062;SDS011;13837;48.562;12.108;2023-09-30T04:30:39;19.80;;;8.52;;
26062;SDS011;13837;48.562;12.108;2023-09-30T04:33:06;15.43;;;7.78;;
26062;SDS011;13837;48.562;12.108;2023-09-30T04:35:33;15.70;;;8.00;;
26062;SDS011;13837;48.562;12.108;2023-09-30T04:38:00;14.82;;;7.82;;
26062;SDS011;13837;48.562;12.108;2023-09-30T04:40:26;18.20;;;8.82;;
26062;SDS011;13837;48.562;12.108;2023-09-30T04:42:52;17.85;;;9.20;;
26062;SDS011;13837;48.562;12.108;2023-09-30T04:45:23;20.75;;;9.27;;
26062;SDS011;13837;48.562;12.108;2023-09-30T04:47:51;17.48;;;8.68;;
26062;SDS011;13837;48.562;12.108;2023-09-30T04:50:23;18.65;;;9.02;;
26062;SDS011;13837;48.562;12.108;2023-09-30T04:52:50;18.48;;;8.27;;
26062;SDS011;13837;48.562;12.108;2023-09-30T04:55:16;19.23;;;8.50;;
26062;SDS011;13837;48.562;12.108;2023-09-30T04:57:47;19.70;;;8.90;;
26062;SDS011;13837;48.562;12.108;2023-09-30T05:00:13;18.40;;;8.90;;
26062;SDS011;13837;48.562;12.108;2023-09-30T05:02:40;16.10;;;8.43;;
26062;SDS011;13837;48.562;12.108;2023-09-30T05:05:06;20.50;;;8.70;;
26062;SDS011;13837;48.562;12.108;2023-09-30T05:07:32;19.05;;;8.98;;
26062;SDS011;13837;48.562;12.108;2023-09-30T05:09:58;19.33;;;9.57;;
26062;SDS011;13837;48.562;12.108;2023-09-30T05:12:30;17.42;;;9.68;;
26062;SDS011;13837;48.562;12.108;2023-09-30T05:14:57;19.92;;;9.23;;
26062;SDS011;13837;48.562;12.108;2023-09-30T05:17:22;19.48;;;9.05;;
26062;SDS011;13837;48.562;12.108;2023-09-30T05:19:48;18.63;;;8.80;;
26062;SDS011;13837;48.562;12.108;2023-09-30T05:22:14;18.13;;;8.60;;
26062;SDS011;13837;48.562;12.108;2023-09-30T05:24:40;17.33;;;8.50;;
26062;SDS011;13837;48.562;12.108;2023-09-30T05:27:06;19.13;;;9.07;;
26062;SDS011;13837;48.562;12.108;2023-09-30T05:29:32;18.80;;;9.20;;
26062;SDS011;13837;48.562;12.108;2023-09-30T05:31:58;16.27;;;8.73;;
26062;SDS011;13837;48.562;12.108;2023-09-30T05:34:24;15.85;;;8.88;;
26062;SDS011;13837;48.562;12.108;2023-09-30T05:36:50;22.23;;;9.60;;
26062;SDS011;13837;48.562;12.108;2023-09-30T05:39:16;17.67;;;8.82;;
26062;SDS011;13837;48.562;12.108;2023-09-30T05:41:45;17.02;;;9.65;;
26062;SDS011;13837;48.562;12.108;2023-09-30T05:44:12;20.60;;;9.32;;
26062;SDS011;13837;48.562;12.108;2023-09-30T05:46:39;18.70;;;9.32;;
26062;SDS011;13837;48.562;12.108;2023-09-30T05:49:05;16.42;;;9.07;;
26062;SDS011;13837;48.562;12.108;2023-09-30T05:51:36;19.80;;;9.25;;
26062;SDS011;13837;48.562;12.108;2023-09-30T05:54:02;18.67;;;9.48;;
26062;SDS011;13837;48.562;12.108;2023-09-30T05:56:30;17.83;;;9.10;;
26062;SDS011;13837;48.562;12.108;2023-09-30T05:58:56;17.75;;;9.25;;
26062;SDS011;13837;48.562;12.108;2023-09-30T06:01:22;17.70;;;8.90;;
26062;SDS011;13837;48.562;12.108;2023-09-30T06:03:48;20.10;;;10.00;;
26062;SDS011;13837;48.562;12.108;2023-09-30T06:06:14;17.70;;;9.40;;
26062;SDS011;13837;48.562;12.108;2023-09-30T06:08:44;18.20;;;9.23;;
26062;SDS011;13837;48.562;12.108;2023-09-30T06:13:52;19.40;;;9.32;;
26062;SDS011;13837;48.562;12.108;2023-09-30T06:16:19;15.68;;;8.82;;
26062;SDS011;13837;48.562;12.108;2023-09-30T06:18:46;21.20;;;8.38;;
26062;SDS011;13837;48.562;12.108;2023-09-30T06:21:15;19.20;;;9.23;;
26062;SDS011;13837;48.562;12.108;2023-09-30T06:23:49;14.77;;;8.50;;
26062;SDS011;13837;48.562;12.108;2023-09-30T06:26:17;15.60;;;8.75;;
26062;SDS011;13837;48.562;12.108;2023-09-30T06:28:43;17.85;;;8.50;;
26062;SDS011;13837;48.562;12.108;2023-09-30T06:31:10;17.77;;;9.90;;
26062;SDS011;13837;48.562;12.108;2023-09-30T06:33:36;15.75;;;8.52;;
26062;SDS011;13837;48.562;12.108;2023-09-30T06:36:10;18.48;;;8.68;;
26062;SDS011;13837;48.562;12.108;2023-09-30T06:38:40;15.70;;;8.23;;
26062;SDS011;13837;48.562;12.108;2023-09-30T06:44:57;13.73;;;8.40;;
26062;SDS011;13837;48.562;12.108;2023-09-30T06:48:46;12.43;;;7.85;;
26062;SDS011;13837;48.562;12.108;2023-09-30T06:51:12;12.65;;;8.00;;
26062;SDS011;13837;48.562;12.108;2023-09-30T06:53:43;14.27;;;8.68;;
26062;SDS011;13837;48.562;12.108;2023-09-30T06:56:11;15.77;;;8.23;;
26062;SDS011;13837;48.562;12.108;2023-09-30T07:01:26;13.02;;;6.93;;
26062;SDS011;13837;48.562;12.108;2023-09-30T07:03:52;11.18;;;7.32;;
26062;SDS011;13837;48.562;12.108;2023-09-30T07:06:23;13.27;;;7.40;;
26062;SDS011;13837;48.562;12.108;2023-09-30T07:12:02;10.60;;;7.15;;
26062;SDS011;13837;48.562;12.108;2023-09-30T07:14:29;12.75;;;6.60;;
26062;SDS011;13837;48.562;12.108;2023-09-30T07:20:45;10.05;;;6.72;;
26062;SDS011;13837;48.562;12.108;2023-09-30T07:23:11;10.68;;;6.80;;
26062;SDS011;13837;48.562;12.108;2023-09-30T07:40:19;8.40;;;6.00;;
26062;SDS011;13837;48.562;12.108;2023-09-30T07:42:49;8.20;;;5.88;;
26062;SDS011;13837;48.562;12.108;2023-09-30T07:55:08;5.28;;;3.92;;
26062;SDS011;13837;48.562;12.108;2023-09-30T07:57:35;5.20;;;4.35;;
26062;SDS011;13837;48.562;12.108;2023-09-30T08:00:02;4.15;;;3.80;;
26062;SDS011;13837;48.562;12.108;2023-09-30T08:02:43;5.03;;;4.45;;
26062;SDS011;13837;48.562;12.108;2023-09-30T08:05:16;6.68;;;4.47;;
26062;SDS011;13837;48.562;12.108;2023-09-30T08:07:47;5.90;;;4.35;;
26062;SDS011;13837;48.562;12.108;2023-09-30T08:10:14;10.50;;;5.10;;
26062;SDS011;13837;48.562;12.108;2023-09-30T08:12:42;5.18;;;4.78;;
26062;SDS011;13837;48.562;12.108;2023-09-30T08:17:37;5.25;;;4.80;;
26062;SDS011;13837;48.562;12.108;2023-09-30T08:20:04;5.88;;;5.38;;
26062;SDS011;13837;48.562;12.108;2023-09-30T08:22:31;5.85;;;5.40;;
26062;SDS011;13837;48.562;12.108;2023-09-30T08:25:03;5.60;;;5.13;;
26062;SDS011;13837;48.562;12.108;2023-09-30T08:27:32;5.45;;;4.95;;
26062;SDS011;13837;48.562;12.108;2023-09-30T08:30:18;6.00;;;5.40;;
26062;SDS011;13837;48.562;12.108;2023-09-30T08:32:45;5.95;;;5.45;;
26062;SDS011;13837;48.562;12.108;2023-09-30T08:35:15;6.22;;;5.78;;
26062;SDS011;13837;48.562;12.108;2023-09-30T08:37:48;6.43;;;6.00;;
26062;SDS011;13837;48.562;12.108;2023-09-30T08:40:19;6.03;;;5.53;;
26062;SDS011;13837;48.562;12.108;2023-09-30T08:42:50;6.50;;;5.97;;
26062;SDS011;13837;48.562;12.108;2023-09-30T08:45:21;6.45;;;5.85;;
26062;SDS011;13837;48.562;12.108;2023-09-30T08:47:47;5.78;;;5.38;;
26062;SDS011;13837;48.562;12.108;2023-09-30T08:50:17;5.35;;;4.95;;
26062;SDS011;13837;48.562;12.108;2023-09-30T08:52:45;5.60;;;5.10;;
26062;SDS011;13837;48.562;12.108;2023-09-30T08:55:11;5.05;;;4.65;;
26062;SDS011;13837;48.562;12.108;2023-09-30T08:57:39;5.32;;;4.82;;
26062;SDS011;13837;48.562;12.108;2023-09-30T09:00:08;5.20;;;4.70;;
26062;SDS011;13837;48.562;12.108;2023-09-30T09:02:39;4.82;;;4.53;;
26062;SDS011;13837;48.562;12.108;2023-09-30T09:05:06;4.80;;;4.50;;
26062;SDS011;13837;48.562;12.108;2023-09-30T09:07:39;5.28;;;4.90;;
26062;SDS011;13837;48.562;12.108;2023-09-30T09:10:11;4.68;;;4.47;;
26062;SDS011;13837;48.562;12.108;2023-09-30T09:12:39;5.00;;;4.70;;
26062;SDS011;13837;48.562;12.108;2023-09-30T09:15:06;5.30;;;5.00;;
26062;SDS011;13837;48.562;12.108;2023-09-30T09:17:52;5.60;;;5.10;;
26062;SDS011;13837;48.562;12.108;2023-09-30T09:20:28;4.85;;;4.45;;
26062;SDS011;13837;48.562;12.108;2023-09-30T09:22:55;5.03;;;4.72;;
26062;SDS011;13837;48.562;12.108;2023-09-30T09:25:23;5.30;;;5.00;;
26062;SDS011;13837;48.562;12.108;2023-09-30T09:27:57;5.00;;;4.70;;
26062;SDS011;13837;48.562;12.108;2023-09-30T09:30:46;5.50;;;5.20;;
26062;SDS011;13837;48.562;12.108;2023-09-30T09:33:45;5.85;;;5.40;;
26062;SDS011;13837;48.562;12.108;2023-09-30T09:36:41;6.35;;;5.95;;
26062;SDS011;13837;48.562;12.108;2023-09-30T09:39:48;6.45;;;5.95;;
26062;SDS011;13837;48.562;12.108;2023-09-30T09:46:47;6.38;;;5.97;;
26062;SDS011;13837;48.562;12.108;2023-09-30T09:49:16;5.40;;;5.10;;
26062;SDS011;13837;48.562;12.108;2023-09-30T09:51:47;5.40;;;5.10;;
26062;SDS011;13837;48.562;12.108;2023-09-30T09:54:36;5.55;;;5.07;;
26062;SDS011;13837;48.562;12.108;2023-09-30T09:57:08;4.97;;;4.78;;
26062;SDS011;13837;48.562;12.108;2023-09-30T09:59:41;5.30;;;5.00;;
26062;SDS011;13837;48.562;12.108;2023-09-30T10:02:18;4.90;;;4.60;;
26062;SDS011;13837;48.562;12.108;2023-09-30T10:04:54;4.63;;;4.30;;
26062;SDS011;13837;48.562;12.108;2023-09-30T10:10:07;4.68;;;4.47;;
26062;SDS011;13837;48.562;12.108;2023-09-30T10:12:39;5.38;;;5.07;;
26062;SDS011;13837;48.562;12.108;2023-09-30T10:20:33;5.03;;;4.72;;
26062;SDS011;13837;48.562;12.108;2023-09-30T10:26:13;4.10;;;3.90;;
26062;SDS011;13837;48.562;12.108;2023-09-30T10:28:51;3.85;;;3.58;;
26062;SDS011;13837;48.562;12.108;2023-09-30T10:31:49;4.25;;;3.85;;
26062;SDS011;13837;48.562;12.108;2023-09-30T10:34:51;3.90;;;3.70;;
26062;SDS011;13837;48.562;12.108;2023-09-30T10:37:46;3.70;;;3.50;;
26062;SDS011;13837;48.562;12.108;2023-09-30T10:40:31;3.75;;;3.55;;
26062;SDS011;13837;48.562;12.108;2023-09-30T10:43:00;3.63;;;3.42;;
26062;SDS011;13837;48.562;12.108;2023-09-30T10:46:33;3.30;;;3.20;;
26062;SDS011;13837;48.562;12.108;2023-09-30T10:53:15;2.85;;;2.70;;
26062;SDS011;13837;48.562;12.108;2023-09-30T10:55:45;3.30;;;2.85;;
26062;SDS011;13837;48.562;12.108;2023-09-30T10:58:43;3.22;;;3.03;;
26062;SDS011;13837;48.562;12.108;2023-09-30T11:01:42;2.72;;;2.63;;
26062;SDS011;13837;48.562;12.108;2023-09-30T11:04:16;3.10;;;2.97;;
26062;SDS011;13837;48.562;12.108;2023-09-30T11:06:56;3.13;;;2.92;;
26062;SDS011;13837;48.562;12.108;2023-09-30T11:09:38;2.80;;;2.60;;
26062;SDS011;13837;48.562;12.108;2023-09-30T11:13:17;3.00;;;2.75;;
26062;SDS011;13837;48.562;12.108;2023-09-30T11:16:21;2.60;;;2.40;;
26062;SDS011;13837;48.562;12.108;2023-09-30T11:19:10;2.30;;;2.17;;
26062;SDS011;13837;48.562;12.108;2023-09-30T11:32:09;2.80;;;2.17;;
26062;SDS011;13837;48.562;12.108;2023-09-30T11:35:31;4.05;;;2.42;;
26062;SDS011;13837;48.562;12.108;2023-09-30T11:38:46;3.97;;;2.67;;
26062;SDS011;13837;48.562;12.108;2023-09-30T11:46:10;3.25;;;2.67;;
26062;SDS011;13837;48.562;12.108;2023-09-30T11:48:51;4.07;;;3.30;;
26062;SDS011;13837;48.562;12.108;2023-09-30T11:51:23;5.53;;;3.00;;
26062;SDS011;13837;48.562;12.108;2023-09-30T11:53:54;3.35;;;2.85;;
26062;SDS011;13837;48.562;12.108;2023-09-30T11:56:27;5.15;;;3.00;;
26062;SDS011;13837;48.562;12.108;2023-09-30T11:59:04;3.35;;;3.05;;
26062;SDS011;13837;48.562;12.108;2023-09-30T12:01:37;3.20;;;2.90;;
26062;SDS011;13837;48.562;12.108;2023-09-30T12:04:03;3.58;;;2.80;;
26062;SDS011;13837;48.562;12.108;2023-09-30T12:06:33;3.15;;;2.85;;
26062;SDS011;13837;48.562;12.108;2023-09-30T12:09:10;4.78;;;3.00;;
26062;SDS011;13837;48.562;12.108;2023-09-30T12:11:46;3.70;;;3.20;;
26062;SDS011;13837;48.562;12.108;2023-09-30T12:14:25;3.67;;;2.95;;
26062;SDS011;13837;48.562;12.108;2023-09-30T12:24:02;3.78;;;2.25;;
26062;SDS011;13837;48.562;12.108;2023-09-30T12:26:30;4.40;;;2.55;;
26062;SDS011;13837;48.562;12.108;2023-09-30T12:28:56;4.63;;;2.65;;
26062;SDS011;13837;48.562;12.108;2023-09-30T12:31:22;5.28;;;2.15;;
26062;SDS011;13837;48.562;12.108;2023-09-30T12:33:48;3.25;;;2.20;;
26062;SDS011;13837;48.562;12.108;2023-09-30T12:36:19;2.97;;;2.40;;
26062;SDS011;13837;48.562;12.108;2023-09-30T12:38:47;5.75;;;2.80;;
26062;SDS011;13837;48.562;12.108;2023-09-30T12:41:13;5.28;;;2.67;;
26062;SDS011;13837;48.562;12.108;2023-09-30T12:43:40;4.47;;;2.92;;
26062;SDS011;13837;48.562;12.108;2023-09-30T12:46:08;3.22;;;2.47;;
26062;SDS011;13837;48.562;12.108;2023-09-30T12:48:34;4.32;;;3.00;;
26062;SDS011;13837;48.562;12.108;2023-09-30T12:51:00;4.93;;;2.88;;
26062;SDS011;13837;48.562;12.108;2023-09-30T12:53:26;3.20;;;2.75;;
26062;SDS011;13837;48.562;12.108;2023-09-30T12:55:51;8.05;;;3.10;;
26062;SDS011;13837;48.562;12.108;2023-09-30T12:58:17;5.35;;;3.35;;
26062;SDS011;13837;48.562;12.108;2023-09-30T13:00:43;4.90;;;3.38;;
26062;SDS011;13837;48.562;12.108;2023-09-30T13:03:09;4.97;;;3.40;;
26062;SDS011;13837;48.562;12.108;2023-09-30T13:05:34;6.13;;;3.25;;
26062;SDS011;13837;48.562;12.108;2023-09-30T13:08:00;3.90;;;2.88;;
26062;SDS011;13837;48.562;12.108;2023-09-30T13:10:26;4.47;;;3.10;;
26062;SDS011;13837;48.562;12.108;2023-09-30T13:12:54;4.03;;;2.95;;
26062;SDS011;13837;48.562;12.108;2023-09-30T13:15:20;5.72;;;3.50;;
26062;SDS011;13837;48.562;12.108;2023-09-30T13:17:46;5.47;;;4.10;;
26062;SDS011;13837;48.562;12.108;2023-09-30T13:20:12;8.23;;;3.55;;
26062;SDS011;13837;48.562;12.108;2023-09-30T13:22:38;6.40;;;3.25;;
26062;SDS011;13837;48.562;12.108;2023-09-30T13:25:07;6.45;;;3.97;;
26062;SDS011;13837;48.562;12.108;2023-09-30T13:27:33;5.07;;;3.38;;
26062;SDS011;13837;48.562;12.108;2023-09-30T13:29:59;4.65;;;3.05;;
26062;SDS011;13837;48.562;12.108;2023-09-30T13:32:26;4.35;;;3.00;;
26062;SDS011;13837;48.562;12.108;2023-09-30T13:34:53;7.22;;;3.70;;
26062;SDS011;13837;48.562;12.108;2023-09-30T13:37:19;5.90;;;3.65;;
26062;SDS011;13837;48.562;12.108;2023-09-30T13:39:48;4.97;;;3.40;;
26062;SDS011;13837;48.562;12.108;2023-09-30T13:42:15;4.70;;;3.40;;
26062;SDS011;13837;48.562;12.108;2023-09-30T13:44:42;6.13;;;3.60;;
26062;SDS011;13837;48.562;12.108;2023-09-30T13:47:08;6.55;;;3.70;;
26062;SDS011;13837;48.562;12.108;2023-09-30T13:49:35;5.22;;;3.55;;
26062;SDS011;13837;48.562;12.108;2023-09-30T13:52:00;7.57;;;3.53;;
26062;SDS011;13837;48.562;12.108;2023-09-30T13:54:26;7.13;;;3.70;;
26062;SDS011;13837;48.562;12.108;2023-09-30T13:56:52;5.65;;;4.07;;
26062;SDS011;13837;48.562;12.108;2023-09-30T13:59:18;5.57;;;3.63;;
26062;SDS011;13837;48.562;12.108;2023-09-30T14:01:44;7.47;;;4.05;;
26062;SDS011;13837;48.562;12.108;2023-09-30T14:04:09;5.70;;;3.80;;
26062;SDS011;13837;48.562;12.108;2023-09-30T14:06:35;5.22;;;3.90;;
26062;SDS011;13837;48.562;12.108;2023-09-30T14:09:02;6.35;;;3.55;;
26062;SDS011;13837;48.562;12.108;2023-09-30T14:11:28;5.95;;;3.80;;
26062;SDS011;13837;48.562;12.108;2023-09-30T14:13:55;6.70;;;3.97;;
26062;SDS011;13837;48.562;12.108;2023-09-30T14:16:21;6.25;;;4.03;;
26062;SDS011;13837;48.562;12.108;2023-09-30T14:18:47;6.82;;;3.97;;
26062;SDS011;13837;48.562;12.108;2023-09-30T14:21:14;8.27;;;4.72;;
26062;SDS011;13837;48.562;12.108;2023-09-30T14:23:40;8.38;;;4.25;;
26062;SDS011;13837;48.562;12.108;2023-09-30T14:26:06;8.10;;;4.13;;
26062;SDS011;13837;48.562;12.108;2023-09-30T14:28:36;5.53;;;3.47;;
26062;SDS011;13837;48.562;12.108;2023-09-30T14:31:03;8.18;;;3.97;;
26062;SDS011;13837;48.562;12.108;2023-09-30T14:33:29;7.57;;;3.72;;
26062;SDS011;13837;48.562;12.108;2023-09-30T14:35:55;7.13;;;4.38;;
26062;SDS011;13837;48.562;12.108;2023-09-30T14:38:21;7.28;;;4.30;;
26062;SDS011;13837;48.562;12.108;2023-09-30T14:40:48;5.88;;;3.72;;
26062;SDS011;13837;48.562;12.108;2023-09-30T14:43:15;8.40;;;3.95;;
26062;SDS011;13837;48.562;12.108;2023-09-30T14:45:42;8.57;;;3.78;;
26062;SDS011;13837;48.562;12.108;2023-09-30T14:48:08;7.40;;;3.90;;
26062;SDS011;13837;48.562;12.108;2023-09-30T14:50:34;8.93;;;3.92;;
26062;SDS011;13837;48.562;12.108;2023-09-30T14:53:02;6.97;;;4.00;;
26062;SDS011;13837;48.562;12.108;2023-09-30T14:55:28;6.47;;;3.78;;
26062;SDS011;13837;48.562;12.108;2023-09-30T14:57:56;5.47;;;3.70;;
26062;SDS011;13837;48.562;12.108;2023-09-30T15:00:22;6.63;;;4.22;;
26062;SDS011;13837;48.562;12.108;2023-09-30T15:02:50;6.60;;;4.13;;
26062;SDS011;13837;48.562;12.108;2023-09-30T15:05:15;6.30;;;4.20;;
26062;SDS011;13837;48.562;12.108;2023-09-30T15:07:41;7.97;;;4.30;;
26062;SDS011;13837;48.562;12.108;2023-09-30T15:10:08;6.65;;;4.20;;
26062;SDS011;13837;48.562;12.108;2023-09-30T15:12:34;6.93;;;4.10;;
26062;SDS011;13837;48.562;12.108;2023-09-30T15:15:00;11.85;;;4.60;;
26062;SDS011;13837;48.562;12.108;2023-09-30T15:17:26;8.45;;;4.60;;
26062;SDS011;13837;48.562;12.108;2023-09-30T15:19:52;10.32;;;4.85;;
26062;SDS011;13837;48.562;12.108;2023-09-30T15:22:17;8.85;;;5.30;;
26062;SDS011;13837;48.562;12.108;2023-09-30T15:24:43;9.98;;;5.20;;
26062;SDS011;13837;48.562;12.108;2023-09-30T15:27:09;7.78;;;4.82;;
26062;SDS011;13837;48.562;12.108;2023-09-30T15:29:35;10.10;;;4.88;;
26062;SDS011;13837;48.562;12.108;2023-09-30T15:32:02;10.13;;;5.18;;
26062;SDS011;13837;48.562;12.108;2023-09-30T15:34:28;8.32;;;5.20;;
26062;SDS011;13837;48.562;12.108;2023-09-30T15:36:54;11.55;;;5.50;;
26062;SDS011;13837;48.562;12.108;2023-09-30T15:39:20;10.52;;;4.93;;
26062;SDS011;13837;48.562;12.108;2023-09-30T15:41:46;7.35;;;4.60;;
26062;SDS011;13837;48.562;12.108;2023-09-30T15:44:12;8.52;;;4.85;;
26062;SDS011;13837;48.562;12.108;2023-09-30T15:46:37;11.85;;;5.50;;
26062;SDS011;13837;48.562;12.108;2023-09-30T15:49:04;9.40;;;5.20;;
26062;SDS011;13837;48.562;12.108;2023-09-30T15:51:30;10.63;;;5.53;;
26062;SDS011;13837;48.562;12.108;2023-09-30T15:53:55;13.07;;;5.68;;
26062;SDS011;13837;48.562;12.108;2023-09-30T15:56:22;9.20;;;4.85;;
26062;SDS011;13837;48.562;12.108;2023-09-30T15:58:48;8.55;;;5.57;;
26062;SDS011;13837;48.562;12.108;2023-09-30T16:01:13;8.25;;;5.40;;
26062;SDS011;13837;48.562;12.108;2023-09-30T16:03:39;7.72;;;5.20;;
26062;SDS011;13837;48.562;12.108;2023-09-30T16:06:07;10.18;;;5.65;;
26062;SDS011;13837;48.562;12.108;2023-09-30T16:08:34;8.57;;;5.32;;
26062;SDS011;13837;48.562;12.108;2023-09-30T16:11:00;9.95;;;5.82;;